Time;durP1;ratioP1;P1;durP2;ratioP2;P2;SDS_P1;SDS_P2;PMS_P1;PMS_P2;Temp;Humidity;BMP_temperature;BMP_pressure;BME280_temperature;BME280_humidity;BME280_pressure;Samples;Min_cycle;Max_cycle;Signal;HPM_P1;HPM_P2
2022/11/03 00:01:13;;;;;;;6.03;5.30;;;6.60;99.90;;;;;;4819863;29;20039;-78
2022/11/03 00:03:41;;;;;;;4.90;4.38;;;6.60;99.90;;;;;;4815013;29;20111;-79
2022/11/03 00:06:08;;;;;;;5.95;4.78;;;6.60;99.90;;;;;;4818960;29;20054;-79
2022/11/03 00:08:38;;;;;;;4.97;4.53;;;6.60;99.90;;;;;;4819952;29;20085;-78
2022/11/03 00:11:09;;;;;;;5.38;4.45;;;6.60;99.90;;;;;;4820824;29;20540;-78
2022/11/03 00:13:38;;;;;;;5.53;4.75;;;6.60;99.90;;;;;;4819999;29;20057;-79
2022/11/03 00:16:06;;;;;;;6.05;4.82;;;6.60;99.90;;;;;;4820664;29;20519;-79
2022/11/03 00:18:33;;;;;;;5.18;4.68;;;6.60;99.90;;;;;;4821257;29;20051;-80
2022/11/03 00:21:02;;;;;;;5.38;4.50;;;6.70;99.90;;;;;;4821822;29;20062;-78
2022/11/03 00:23:32;;;;;;;5.30;4.75;;;6.70;99.90;;;;;;4804557;29;20141;-79
2022/11/03 00:26:09;;;;;;;4.85;4.45;;;6.70;99.90;;;;;;4819394;29;20046;-78
2022/11/03 00:28:37;;;;;;;5.40;4.82;;;6.70;99.90;;;;;;4819208;29;20054;-79
2022/11/03 00:31:08;;;;;;;6.05;5.40;;;6.70;99.90;;;;;;4806417;29;20416;-79
2022/11/03 00:33:37;;;;;;;4.57;4.20;;;6.70;99.90;;;;;;4820806;29;20107;-79
2022/11/03 00:36:05;;;;;;;5.03;4.60;;;6.70;99.90;;;;;;4819201;29;20054;-79
2022/11/03 00:38:33;;;;;;;4.90;4.45;;;6.60;99.90;;;;;;4804686;29;20046;-79
2022/11/03 00:41:02;;;;;;;5.18;4.68;;;6.60;99.90;;;;;;4821145;29;20555;-79
2022/11/03 00:43:33;;;;;;;5.43;4.57;;;6.60;99.90;;;;;;4823398;29;20046;-79
2022/11/03 00:46:01;;;;;;;5.72;4.70;;;6.60;99.90;;;;;;4824086;29;20054;-76
2022/11/03 00:48:31;;;;;;;6.07;4.90;;;6.60;99.90;;;;;;4823627;29;20057;-76
2022/11/03 00:51:03;;;;;;;4.97;4.47;;;6.60;99.90;;;;;;4822765;29;20055;-76
2022/11/03 00:53:31;;;;;;;5.10;4.60;;;6.60;99.90;;;;;;4822667;29;20421;-76
2022/11/03 00:55:58;;;;;;;6.15;5.22;;;6.60;99.90;;;;;;4824548;29;20065;-76
2022/11/03 00:58:25;;;;;;;5.43;4.90;;;6.60;99.90;;;;;;4823434;29;20112;-75
2022/11/03 01:01:00;;;;;;;5.88;5.28;;;6.60;99.90;;;;;;4823565;29;20593;-75
2022/11/03 01:03:27;;;;;;;7.22;5.72;;;6.60;99.90;;;;;;4822807;29;20074;-75
2022/11/03 01:08:40;;;;;;;5.75;4.88;;;6.60;99.90;;;;;;4821974;29;20054;-75
2022/11/03 01:13:54;;;;;;;8.68;6.45;;;6.60;99.90;;;;;;4822601;29;20054;-74
2022/11/03 01:16:23;;;;;;;9.73;6.97;;;6.60;99.90;;;;;;4822583;29;20435;-75
2022/11/03 01:18:51;;;;;;;8.63;6.88;;;6.60;99.90;;;;;;4824300;29;20053;-74
2022/11/03 01:21:18;;;;;;;10.65;7.00;;;6.60;99.90;;;;;;4824185;29;20058;-74
2022/11/03 01:23:46;;;;;;;11.40;7.30;;;6.60;99.90;;;;;;4821390;29;20047;-75
2022/11/03 01:26:14;;;;;;;9.75;7.13;;;6.50;99.90;;;;;;4821997;29;20137;-74
2022/11/03 01:28:43;;;;;;;8.73;7.25;;;6.50;99.90;;;;;;4823030;29;20095;-75
2022/11/03 01:31:12;;;;;;;11.63;8.07;;;6.50;99.90;;;;;;4821857;29;20607;-75
2022/11/03 01:33:41;;;;;;;14.75;7.68;;;6.50;99.90;;;;;;4821112;29;20145;-75
2022/11/03 01:36:09;;;;;;;9.07;7.43;;;6.40;99.90;;;;;;4821340;29;20057;-75
2022/11/03 01:38:37;;;;;;;12.32;8.07;;;6.40;99.90;;;;;;4822465;29;20073;-75
2022/11/03 01:41:06;;;;;;;20.23;7.97;;;6.40;99.90;;;;;;4822509;29;20074;-75
2022/11/03 01:43:33;;;;;;;12.23;7.63;;;6.40;99.90;;;;;;4821024;29;20050;-75
2022/11/03 01:46:06;;;;;;;10.65;8.85;;;6.40;99.90;;;;;;4823455;29;20065;-75
2022/11/03 01:48:35;;;;;;;8.57;7.28;;;6.40;99.90;;;;;;4807108;29;20436;-75
2022/11/03 01:51:06;;;;;;;10.40;8.13;;;6.40;99.90;;;;;;4822687;29;20074;-75
2022/11/03 01:53:35;;;;;;;10.20;7.82;;;6.30;99.90;;;;;;4822286;29;20129;-74
2022/11/03 01:56:03;;;;;;;12.70;7.97;;;6.30;99.90;;;;;;4807722;29;20058;-74
2022/11/03 01:58:34;;;;;;;10.65;8.02;;;6.30;99.90;;;;;;4821982;29;20058;-74
2022/11/03 02:01:02;;;;;;;16.58;8.60;;;6.30;99.90;;;;;;4823302;29;20066;-74
2022/11/03 02:03:34;;;;;;;13.40;9.32;;;6.30;99.90;;;;;;4821851;29;20050;-74
2022/11/03 02:06:04;;;;;;;12.70;9.30;;;6.30;99.90;;;;;;4822779;29;20065;-74
2022/11/03 02:08:36;;;;;;;13.68;9.30;;;6.30;99.90;;;;;;4821784;29;20051;-74
2022/11/03 02:12:05;;;;;;;18.73;9.97;;;6.30;99.90;;;;;;4820323;29;20070;-75
2022/11/03 02:13:51;;;;;;;13.57;9.35;;;6.30;99.90;;;;;;4821878;29;20191;-75
2022/11/03 02:16:20;;;;;;;14.88;9.05;;;6.30;99.90;;;;;;4824049;29;20046;-75
2022/11/03 02:18:49;;;;;;;14.13;9.93;;;6.30;99.90;;;;;;4806218;29;20516;-75
2022/11/03 02:21:27;;;;;;;13.00;8.88;;;6.30;99.90;;;;;;4834075;29;20149;-75
2022/11/03 02:24:01;;;;;;;11.40;8.38;;;6.30;99.90;;;;;;4812463;29;20148;-75
2022/11/03 02:26:30;;;;;;;10.05;7.95;;;6.40;99.90;;;;;;4821401;29;20057;-76
2022/11/03 02:28:58;;;;;;;10.77;7.68;;;6.30;99.90;;;;;;4822601;29;20595;-75
2022/11/03 02:31:41;;;;;;;10.23;7.75;;;6.30;99.90;;;;;;4805977;29;20050;-75
2022/11/03 02:34:14;;;;;;;8.50;7.15;;;6.30;99.90;;;;;;4821382;29;20516;-79
2022/11/03 02:36:46;;;;;;;11.20;7.93;;;6.30;99.90;;;;;;4822729;29;20049;-78
2022/11/03 02:39:19;;;;;;;7.32;6.50;;;6.30;99.90;;;;;;4820432;29;20058;-78
2022/11/03 02:41:49;;;;;;;8.48;7.00;;;6.30;99.90;;;;;;4822607;29;20593;-78
2022/11/03 02:44:19;;;;;;;9.85;7.60;;;6.30;99.90;;;;;;4822737;29;20047;-78
2022/11/03 02:46:49;;;;;;;11.27;7.93;;;6.30;99.90;;;;;;4818923;29;20062;-77
2022/11/03 02:49:16;;;;;;;10.25;8.13;;;6.30;99.90;;;;;;4820304;29;20444;-78
2022/11/03 02:51:43;;;;;;;8.10;7.30;;;6.20;99.90;;;;;;4820416;29;20432;-78
2022/11/03 02:54:19;;;;;;;11.65;8.13;;;6.20;99.90;;;;;;4822024;29;20066;-77
2022/11/03 02:56:51;;;;;;;11.07;7.00;;;6.20;99.90;;;;;;4806941;29;20046;-78
2022/11/03 02:59:24;;;;;;;7.57;6.82;;;6.20;99.90;;;;;;4822164;29;20145;-78
2022/11/03 03:01:56;;;;;;;11.50;7.80;;;6.20;99.90;;;;;;4820752;29;20130;-78
2022/11/03 03:04:29;;;;;;;9.70;7.18;;;6.10;99.90;;;;;;4809119;29;20095;-75
2022/11/03 03:07:01;;;;;;;9.77;7.97;;;6.10;99.90;;;;;;4821286;29;20137;-75
2022/11/03 03:09:33;;;;;;;10.13;7.88;;;6.10;99.90;;;;;;4822573;29;20073;-76
2022/11/03 03:12:04;;;;;;;12.27;9.75;;;6.20;99.90;;;;;;4820302;29;20054;-75
2022/11/03 03:14:35;;;;;;;11.75;8.07;;;6.20;99.90;;;;;;4835481;29;20539;-75
2022/11/03 03:17:08;;;;;;;9.75;7.80;;;6.30;99.90;;;;;;4805911;29;20058;-75
2022/11/03 03:19:47;;;;;;;9.70;7.30;;;6.30;99.90;;;;;;4823208;29;20085;-76
2022/11/03 03:22:22;;;;;;;10.90;7.57;;;6.30;99.90;;;;;;4821510;29;20579;-75
2022/11/03 03:24:55;;;;;;;9.27;7.07;;;6.30;99.90;;;;;;4790747;29;20071;-75
2022/11/03 03:27:27;;;;;;;10.57;7.28;;;6.30;99.90;;;;;;4796841;29;20058;-75
2022/11/03 03:29:58;;;;;;;12.33;9.17;;;6.30;99.90;;;;;;4820393;29;20061;-75
2022/11/03 03:32:28;;;;;;;11.82;8.93;;;6.20;99.90;;;;;;4804578;29;20546;-76
2022/11/03 03:34:57;;;;;;;14.82;10.85;;;6.20;99.90;;;;;;4798252;29;20058;-77
2022/11/03 03:37:26;;;;;;;14.13;9.90;;;6.20;99.90;;;;;;4811594;29;20054;-76
2022/11/03 03:39:57;;;;;;;14.35;10.07;;;6.20;99.90;;;;;;4821233;29;20478;-77
2022/11/03 03:42:29;;;;;;;14.50;9.27;;;6.20;99.90;;;;;;4822038;29;20555;-77
2022/11/03 03:44:58;;;;;;;17.02;10.27;;;6.20;99.90;;;;;;4822214;29;20086;-77
2022/11/03 03:47:29;;;;;;;12.95;9.55;;;6.20;99.90;;;;;;4802695;29;20056;-76
2022/11/03 03:49:57;;;;;;;13.48;9.27;;;6.10;99.90;;;;;;4820632;29;20054;-77
2022/11/03 03:52:25;;;;;;;11.38;8.73;;;6.10;99.90;;;;;;4820637;29;20061;-77
2022/11/03 03:54:52;;;;;;;11.52;8.77;;;6.10;99.90;;;;;;4821020;29;20153;-77
2022/11/03 03:57:23;;;;;;;10.85;7.78;;;6.10;99.90;;;;;;4821770;29;20050;-78
2022/11/03 03:59:51;;;;;;;11.82;8.40;;;6.20;99.90;;;;;;4821775;29;20070;-78
2022/11/03 04:02:19;;;;;;;12.27;8.73;;;6.20;99.90;;;;;;4819533;29;20096;-78
2022/11/03 04:04:46;;;;;;;12.52;8.50;;;6.20;99.90;;;;;;4809825;29;20062;-78
2022/11/03 04:09:58;;;;;;;13.43;9.35;;;6.10;99.90;;;;;;4840170;29;20062;-78
2022/11/03 04:23:31;;;;;;;14.98;10.13;;;6.10;99.90;;;;;;4825824;29;20081;-79
2022/11/03 04:26:01;;;;;;;14.95;10.48;;;6.10;99.90;;;;;;4827061;29;20075;-84
2022/11/03 04:28:28;;;;;;;15.82;10.82;;;6.00;99.90;;;;;;4826547;29;20062;-77
2022/11/03 04:30:59;;;;;;;15.63;10.57;;;6.10;99.90;;;;;;4826573;29;20039;-84
2022/11/03 04:33:29;;;;;;;17.77;12.07;;;6.10;99.90;;;;;;4825862;29;20050;-78
2022/11/03 04:35:58;;;;;;;15.20;10.48;;;6.10;99.90;;;;;;4824573;29;20051;-78
2022/11/03 04:38:27;;;;;;;17.75;11.85;;;6.10;99.90;;;;;;4827592;29;20046;-79
2022/11/03 04:40:56;;;;;;;13.48;9.95;;;6.10;99.90;;;;;;4813873;29;20066;-77
2022/11/03 04:43:32;;;;;;;16.65;10.30;;;6.00;99.90;;;;;;4829631;29;20138;-86
2022/11/03 04:46:02;;;;;;;16.73;10.40;;;5.90;99.90;;;;;;4794719;29;20062;-79
2022/11/03 04:48:30;;;;;;;15.52;10.50;;;6.00;99.90;;;;;;4812252;29;20096;-79
2022/11/03 04:51:00;;;;;;;15.98;10.80;;;6.00;99.90;;;;;;4812686;29;20065;-79
2022/11/03 04:53:30;;;;;;;14.68;9.93;;;6.00;99.90;;;;;;4816086;29;20050;-79
2022/11/03 04:55:59;;;;;;;13.55;9.75;;;5.90;99.90;;;;;;4817165;29;20494;-82
2022/11/03 04:58:30;;;;;;;18.70;11.32;;;5.90;99.90;;;;;;4818130;29;20228;-85
2022/11/03 05:00:59;;;;;;;14.98;10.13;;;5.90;99.90;;;;;;4818977;29;20054;-77
2022/11/03 05:03:31;;;;;;;17.85;11.13;;;5.90;99.90;;;;;;4817449;29;20046;-78
2022/11/03 05:06:01;;;;;;;16.37;11.37;;;5.90;99.90;;;;;;4811860;29;20520;-77
2022/11/03 05:08:29;;;;;;;19.30;10.93;;;6.00;99.90;;;;;;4803777;29;20300;-78
2022/11/03 05:10:56;;;;;;;14.65;10.30;;;6.00;99.90;;;;;;4803944;29;20054;-78
2022/11/03 05:13:28;;;;;;;17.42;11.73;;;6.00;99.90;;;;;;4804632;29;20150;-78
2022/11/03 05:16:03;;;;;;;16.48;11.02;;;6.00;99.90;;;;;;4803553;29;20051;-78
2022/11/03 05:18:35;;;;;;;16.08;10.60;;;6.00;99.90;;;;;;4804802;29;20131;-79
2022/11/03 05:21:05;;;;;;;16.33;10.60;;;6.00;99.90;;;;;;4803124;29;20599;-78
2022/11/03 05:23:39;;;;;;;21.58;11.63;;;5.90;99.90;;;;;;4806361;29;20431;-79
2022/11/03 05:26:12;;;;;;;16.60;10.63;;;5.90;99.90;;;;;;4817177;29;20050;-78
2022/11/03 05:28:42;;;;;;;15.63;10.60;;;5.90;99.90;;;;;;4823288;29;20559;-79
2022/11/03 05:31:20;;;;;;;22.63;12.00;;;6.00;99.90;;;;;;4811020;29;20055;-78
2022/11/03 05:33:51;;;;;;;16.00;10.30;;;6.00;99.90;;;;;;4805469;29;20062;-82
2022/11/03 05:36:21;;;;;;;17.80;11.10;;;6.00;99.90;;;;;;4807805;29;20526;-79
2022/11/03 05:38:49;;;;;;;15.77;9.93;;;6.00;99.90;;;;;;4813236;29;20059;-77
2022/11/03 05:41:22;;;;;;;13.40;8.43;;;6.00;99.90;;;;;;4816842;29;20054;-78
2022/11/03 05:44:01;;;;;;;13.68;9.15;;;6.10;99.90;;;;;;4808147;29;20090;-78
2022/11/03 05:46:31;;;;;;;15.70;9.32;;;6.10;99.90;;;;;;4824784;29;20062;-78
2022/11/03 05:49:02;;;;;;;14.07;9.45;;;6.00;99.90;;;;;;4824648;29;20150;-82
2022/11/03 05:51:35;;;;;;;13.38;9.77;;;5.90;99.90;;;;;;4821585;29;20047;-82
2022/11/03 05:54:04;;;;;;;16.70;10.77;;;5.80;99.90;;;;;;4808764;29;20492;-82
2022/11/03 05:56:33;;;;;;;15.13;9.98;;;5.80;99.90;;;;;;4807050;29;20176;-82
2022/11/03 05:59:01;;;;;;;14.82;9.60;;;5.80;99.90;;;;;;4811000;29;20055;-82
2022/11/03 06:01:31;;;;;;;13.60;9.10;;;5.80;99.90;;;;;;4821377;29;20050;-82
2022/11/03 06:04:04;;;;;;;13.50;8.80;;;5.80;99.90;;;;;;4823461;29;20107;-83
2022/11/03 06:06:35;;;;;;;13.07;8.07;;;5.80;99.90;;;;;;4822846;29;20054;-79
2022/11/03 06:09:10;;;;;;;12.70;7.50;;;5.80;99.90;;;;;;4822794;29;20503;-80
2022/11/03 06:11:39;;;;;;;13.18;7.85;;;5.80;99.90;;;;;;4823248;29;20417;-80
2022/11/03 06:14:15;;;;;;;11.65;7.45;;;5.80;99.90;;;;;;4823077;29;20157;-78
2022/11/03 06:16:43;;;;;;;10.55;7.57;;;5.90;99.90;;;;;;4823426;29;20061;-79
2022/11/03 06:19:35;;;;;;;11.10;7.50;;;5.90;99.90;;;;;;4824407;29;20056;-77
2022/11/03 06:22:06;;;;;;;11.80;6.55;;;5.80;99.90;;;;;;4822320;29;20053;-79
2022/11/03 06:24:35;;;;;;;13.02;6.75;;;5.80;99.90;;;;;;4826193;29;20055;-79
2022/11/03 06:27:02;;;;;;;11.45;6.95;;;5.80;99.90;;;;;;4824646;29;20046;-79
2022/11/03 06:29:32;;;;;;;10.57;6.85;;;5.80;99.90;;;;;;4825281;29;20495;-80
2022/11/03 06:31:59;;;;;;;8.60;6.25;;;5.90;99.90;;;;;;4807573;29;20053;-79
2022/11/03 06:34:41;;;;;;;15.52;6.97;;;6.00;99.90;;;;;;4824042;29;20058;-80
2022/11/03 06:37:22;;;;;;;9.35;6.57;;;6.00;99.90;;;;;;4823724;29;20542;-79
2022/11/03 06:39:51;;;;;;;8.43;6.25;;;6.00;99.90;;;;;;4823306;29;20385;-80
2022/11/03 06:42:22;;;;;;;9.90;6.78;;;6.00;99.90;;;;;;4819244;29;20046;-79
2022/11/03 06:44:51;;;;;;;12.48;6.45;;;6.00;99.90;;;;;;4810023;29;20054;-80
2022/11/03 06:47:23;;;;;;;9.88;7.10;;;6.00;99.90;;;;;;4805435;29;20405;-79
2022/11/03 06:49:54;;;;;;;13.05;7.47;;;6.00;99.90;;;;;;4803896;29;20055;-80
2022/11/03 06:52:28;;;;;;;12.13;7.40;;;6.00;99.90;;;;;;4804187;29;20096;-80
2022/11/03 06:55:02;;;;;;;13.85;7.13;;;6.00;99.90;;;;;;4805443;29;20500;-79
2022/11/03 06:57:35;;;;;;;9.25;6.88;;;5.90;99.90;;;;;;4805423;29;20424;-79
2022/11/03 07:00:07;;;;;;;10.13;7.43;;;5.90;99.90;;;;;;4805054;29;20525;-79
2022/11/03 07:02:53;;;;;;;11.80;7.80;;;5.90;99.90;;;;;;4804945;29;20307;-80
2022/11/03 07:05:24;;;;;;;12.13;8.27;;;5.80;99.90;;;;;;4809308;29;20446;-82
2022/11/03 07:07:55;;;;;;;12.68;7.20;;;5.80;99.90;;;;;;4815401;29;20065;-80
2022/11/03 07:10:24;;;;;;;12.43;7.95;;;5.80;99.90;;;;;;4814646;29;20131;-79
2022/11/03 07:12:53;;;;;;;11.25;8.05;;;5.80;99.90;;;;;;4813020;29;20058;-78
2022/11/03 07:15:29;;;;;;;12.35;7.47;;;5.80;99.90;;;;;;4805117;29;20427;-79
2022/11/03 07:17:57;;;;;;;13.80;7.95;;;5.90;99.90;;;;;;4810319;29;20053;-79
2022/11/03 07:20:25;;;;;;;15.23;7.90;;;5.80;99.90;;;;;;4799559;29;20524;-80
2022/11/03 07:22:54;;;;;;;12.10;8.35;;;5.70;99.90;;;;;;4809744;29;20108;-79
2022/11/03 07:25:22;;;;;;;11.93;8.52;;;5.70;99.90;;;;;;4816554;29;20427;-78
2022/11/03 07:27:51;;;;;;;12.25;7.88;;;5.70;99.90;;;;;;4822473;29;20105;-79
2022/11/03 07:30:21;;;;;;;16.30;7.68;;;5.80;99.90;;;;;;4822673;29;20053;-78
2022/11/03 07:32:51;;;;;;;10.93;7.82;;;5.80;99.90;;;;;;4824567;29;20047;-78
2022/11/03 07:35:30;;;;;;;13.25;8.80;;;5.80;99.90;;;;;;4807953;29;20054;-77
2022/11/03 07:38:01;;;;;;;10.30;7.57;;;5.90;99.90;;;;;;4801129;29;20502;-77
2022/11/03 07:40:31;;;;;;;12.05;8.63;;;5.90;99.90;;;;;;4802916;29;20094;-76
2022/11/03 07:43:02;;;;;;;14.40;8.75;;;5.90;99.90;;;;;;4810870;29;20059;-77
2022/11/03 07:45:38;;;;;;;11.90;8.73;;;5.90;99.90;;;;;;4808031;29;20050;-77
2022/11/03 07:48:17;;;;;;;15.70;8.65;;;5.90;99.90;;;;;;4806344;29;20059;-77
2022/11/03 07:50:46;;;;;;;14.63;8.52;;;5.90;99.90;;;;;;4808279;29;20110;-78
2022/11/03 07:53:18;;;;;;;11.30;7.68;;;5.90;99.90;;;;;;4803258;29;20043;-78
2022/11/03 07:55:46;;;;;;;13.23;8.25;;;6.00;99.90;;;;;;4803966;29;20054;-78
2022/11/03 07:58:20;;;;;;;10.25;7.72;;;5.90;99.90;;;;;;4806132;29;20803;-78
2022/11/03 08:00:48;;;;;;;11.02;8.15;;;5.90;99.90;;;;;;4800452;29;20137;-76
2022/11/03 08:03:27;;;;;;;10.35;7.95;;;5.80;99.90;;;;;;4805956;29;20047;-78
2022/11/03 08:05:55;;;;;;;9.07;7.72;;;5.90;99.90;;;;;;4795848;29;20471;-77
2022/11/03 08:08:22;;;;;;;11.00;7.55;;;5.90;99.90;;;;;;4801803;29;20108;-78
2022/11/03 08:10:50;;;;;;;12.30;7.65;;;5.90;99.90;;;;;;4802961;29;20055;-79
2022/11/03 08:13:18;;;;;;;12.07;7.40;;;5.90;99.90;;;;;;4800135;29;20057;-78
2022/11/03 08:15:45;;;;;;;12.38;7.50;;;6.00;99.90;;;;;;4815957;29;20423;-79
2022/11/03 08:18:12;;;;;;;9.55;7.07;;;5.90;99.90;;;;;;4801758;29;20511;-78
2022/11/03 08:20:39;;;;;;;11.18;7.45;;;6.00;99.90;;;;;;4802835;29;20058;-78
2022/11/03 08:23:10;;;;;;;8.57;6.80;;;6.00;99.90;;;;;;4801285;29;20112;-78
2022/11/03 08:25:37;;;;;;;13.43;7.00;;;6.00;99.90;;;;;;4801781;29;20141;-81
2022/11/03 08:28:05;;;;;;;8.63;7.13;;;6.00;99.90;;;;;;4802582;29;20066;-79
2022/11/03 08:30:33;;;;;;;9.38;7.13;;;6.00;99.90;;;;;;4799125;29;20073;-80
2022/11/03 08:33:00;;;;;;;10.18;6.93;;;6.10;99.90;;;;;;4801431;29;20090;-78
2022/11/03 08:35:28;;;;;;;9.50;7.30;;;6.10;99.90;;;;;;4802376;29;20059;-81
2022/11/03 08:37:55;;;;;;;8.68;7.53;;;6.10;99.90;;;;;;4803355;29;20154;-79
2022/11/03 08:40:24;;;;;;;10.18;7.65;;;6.10;99.90;;;;;;4800605;29;20150;-79
2022/11/03 08:42:51;;;;;;;8.93;6.80;;;6.20;99.90;;;;;;4800729;29;20150;-79
2022/11/03 08:45:18;;;;;;;8.55;6.55;;;6.20;99.90;;;;;;4802604;29;20079;-79
2022/11/03 08:47:45;;;;;;;10.05;7.50;;;6.30;99.90;;;;;;4801443;29;20099;-78
2022/11/03 08:50:12;;;;;;;10.00;7.80;;;6.30;99.90;;;;;;4800806;29;20061;-79
2022/11/03 08:52:40;;;;;;;9.00;6.93;;;6.40;99.90;;;;;;4801876;29;20058;-78
2022/11/03 08:55:07;;;;;;;8.48;6.85;;;6.40;99.90;;;;;;4815350;29;20552;-78
2022/11/03 08:57:36;;;;;;;10.45;7.43;;;6.40;99.90;;;;;;4816680;29;20431;-78
2022/11/03 09:00:04;;;;;;;10.60;7.65;;;6.40;99.90;;;;;;4801229;29;20259;-79
2022/11/03 09:02:32;;;;;;;9.15;6.80;;;6.40;99.90;;;;;;4802314;29;20436;-78
2022/11/03 09:04:59;;;;;;;14.95;6.95;;;6.40;99.90;;;;;;4805888;29;20370;-78
2022/11/03 09:07:26;;;;;;;11.30;7.22;;;6.40;99.90;;;;;;4803893;29;20142;-80
2022/11/03 09:09:54;;;;;;;9.90;7.47;;;6.40;99.90;;;;;;4805363;29;20161;-79
2022/11/03 09:12:22;;;;;;;9.30;7.00;;;6.40;99.90;;;;;;4801000;29;20054;-79
2022/11/03 09:14:51;;;;;;;10.35;7.32;;;6.40;99.90;;;;;;4806810;29;20059;-79
2022/11/03 09:17:18;;;;;;;7.28;6.50;;;6.40;99.90;;;;;;4803689;29;20069;-79
2022/11/03 09:19:45;;;;;;;10.48;6.97;;;6.40;99.90;;;;;;4803460;29;20070;-80
2022/11/03 09:22:12;;;;;;;10.25;7.40;;;6.40;99.90;;;;;;4803885;29;20420;-81
2022/11/03 09:24:40;;;;;;;10.73;8.07;;;6.40;99.90;;;;;;4819793;29;20051;-79
2022/11/03 09:27:07;;;;;;;9.50;7.50;;;6.50;99.90;;;;;;4801109;29;20181;-76
2022/11/03 09:29:34;;;;;;;12.32;7.80;;;6.50;99.90;;;;;;4805236;29;20058;-77
2022/11/03 09:32:03;;;;;;;10.15;8.05;;;6.50;99.90;;;;;;4818525;29;20051;-77
2022/11/03 09:34:30;;;;;;;10.20;8.05;;;6.50;99.90;;;;;;4805722;29;20117;-78
2022/11/03 09:36:58;;;;;;;12.38;8.15;;;6.40;99.90;;;;;;4802120;29;20051;-78
2022/11/03 09:39:25;;;;;;;12.35;9.73;;;6.40;99.90;;;;;;4804776;29;20520;-80
2022/11/03 09:41:56;;;;;;;14.27;9.18;;;6.40;99.90;;;;;;4805914;29;20043;-78
2022/11/03 09:44:24;;;;;;;17.40;9.70;;;6.50;99.90;;;;;;4803512;29;20051;-78
2022/11/03 09:46:51;;;;;;;14.10;9.27;;;6.50;99.90;;;;;;4803050;29;20484;-79
2022/11/03 09:49:21;;;;;;;15.52;9.85;;;6.50;99.90;;;;;;4818806;29;20046;-81
2022/11/03 09:51:48;;;;;;;15.70;10.65;;;6.50;99.90;;;;;;4804977;29;20149;-80
2022/11/03 09:54:17;;;;;;;16.98;9.63;;;6.50;99.90;;;;;;4804238;29;20050;-79
2022/11/03 09:56:46;;;;;;;13.93;8.90;;;6.50;99.90;;;;;;4803511;29;20536;-79
2022/11/03 09:59:17;;;;;;;15.63;9.98;;;6.60;99.90;;;;;;4804130;29;20562;-82
2022/11/03 10:01:48;;;;;;;14.32;10.13;;;6.60;99.90;;;;;;4804522;29;20067;-78
2022/11/03 10:04:16;;;;;;;13.25;9.00;;;6.50;99.90;;;;;;4797278;29;20505;-78
2022/11/03 10:06:45;;;;;;;14.15;9.38;;;6.50;99.90;;;;;;4803572;29;20086;-77
2022/11/03 10:09:19;;;;;;;16.80;10.13;;;6.50;99.90;;;;;;4802862;29;20123;-76
2022/11/03 10:11:47;;;;;;;16.92;9.57;;;6.50;99.90;;;;;;4799444;29;20149;-79
2022/11/03 10:14:17;;;;;;;16.90;9.95;;;6.50;99.90;;;;;;4802366;29;20195;-78
2022/11/03 10:16:51;;;;;;;16.58;10.57;;;6.40;99.90;;;;;;4804138;29;20154;-78
2022/11/03 10:19:19;;;;;;;15.10;9.38;;;6.30;99.90;;;;;;4818761;29;20065;-78
2022/11/03 10:21:48;;;;;;;16.35;10.30;;;6.30;99.90;;;;;;4802821;29;20043;-78
2022/11/03 10:24:15;;;;;;;16.65;10.32;;;6.30;99.90;;;;;;4803941;29;20066;-79
2022/11/03 10:26:47;;;;;;;14.20;9.55;;;6.30;99.90;;;;;;4803860;29;20053;-81
2022/11/03 10:29:21;;;;;;;15.18;9.93;;;6.30;99.90;;;;;;4818570;29;20207;-81
2022/11/03 10:31:50;;;;;;;17.75;10.25;;;6.30;99.90;;;;;;4802897;29;20090;-80
2022/11/03 10:34:33;;;;;;;14.63;10.15;;;6.30;99.90;;;;;;4800995;29;20559;-81
2022/11/03 10:37:19;;;;;;;15.20;9.70;;;6.30;99.90;;;;;;4802694;29;20112;-82
2022/11/03 10:39:48;;;;;;;16.83;10.75;;;6.20;99.90;;;;;;4810531;29;20488;-79
2022/11/03 10:42:20;;;;;;;16.75;9.82;;;6.30;99.90;;;;;;4805540;29;20055;-81
2022/11/03 10:44:48;;;;;;;18.58;10.20;;;6.30;99.90;;;;;;4805161;29;20397;-83
2022/11/03 10:47:24;;;;;;;13.68;8.68;;;6.40;99.90;;;;;;4804657;29;20066;-81
2022/11/03 10:49:53;;;;;;;14.38;8.77;;;6.40;99.90;;;;;;4801881;29;20409;-82
2022/11/03 10:52:24;;;;;;;14.23;9.70;;;6.40;99.90;;;;;;4804279;29;20055;-82
2022/11/03 10:54:53;;;;;;;14.55;9.00;;;6.30;99.90;;;;;;4802644;29;20117;-82
2022/11/03 10:57:21;;;;;;;15.05;9.70;;;6.30;99.90;;;;;;4804965;29;20578;-81
2022/11/03 10:59:50;;;;;;;16.48;9.50;;;6.40;99.90;;;;;;4815877;29;20516;-77
2022/11/03 11:02:20;;;;;;;14.50;9.02;;;6.40;99.90;;;;;;4802618;29;20057;-78
2022/11/03 11:04:49;;;;;;;13.55;9.30;;;6.40;99.90;;;;;;4804127;29;20058;-77
2022/11/03 11:07:25;;;;;;;14.38;8.73;;;6.40;99.90;;;;;;4802269;29;20069;-77
2022/11/03 11:09:54;;;;;;;14.00;9.32;;;6.40;99.90;;;;;;4801325;29;20420;-77
2022/11/03 11:12:23;;;;;;;15.43;9.20;;;6.40;99.90;;;;;;4802190;29;20149;-78
2022/11/03 11:14:58;;;;;;;15.48;9.93;;;6.40;99.90;;;;;;4798468;29;20078;-78
2022/11/03 11:17:46;;;;;;;11.45;8.45;;;6.40;99.90;;;;;;4785617;29;20061;-79
2022/11/03 11:20:37;;;;;;;16.67;10.10;;;6.40;99.90;;;;;;4786621;29;20051;-78
2022/11/03 11:23:51;;;;;;;17.33;10.55;;;6.40;99.90;;;;;;4802164;29;20157;-78
2022/11/03 11:26:40;;;;;;;19.52;9.70;;;6.30;99.90;;;;;;4795495;29;20516;-78
2022/11/03 11:29:35;;;;;;;16.98;10.07;;;6.30;99.90;;;;;;4802203;29;20192;-79
2022/11/03 11:32:48;;;;;;;19.83;9.45;;;6.20;99.90;;;;;;4797810;29;20135;-80
2022/11/03 11:36:03;;;;;;;15.43;10.00;;;6.20;99.90;;;;;;4801258;29;20519;-81
2022/11/03 11:39:06;;;;;;;17.45;9.80;;;6.10;99.90;;;;;;4817160;29;20055;-78
2022/11/03 11:42:10;;;;;;;13.83;8.93;;;5.90;99.90;;;;;;4800235;29;20055;-80
2022/11/03 11:45:04;;;;;;;14.13;9.38;;;5.90;99.90;;;;;;4802319;29;20304;-79
2022/11/03 11:47:50;;;;;;;22.95;9.85;;;5.80;99.90;;;;;;4794051;29;20063;-79
2022/11/03 11:50:30;;;;;;;18.08;10.48;;;5.90;99.90;;;;;;4798021;29;20189;-79
2022/11/03 11:53:12;;;;;;;17.08;10.35;;;5.90;99.90;;;;;;4804271;29;20062;-83
2022/11/03 11:55:43;;;;;;;17.02;9.63;;;5.90;99.90;;;;;;4800521;29;20482;-82
2022/11/03 11:58:21;;;;;;;17.60;9.70;;;5.90;99.90;;;;;;4802810;29;20062;-83
2022/11/03 12:00:55;;;;;;;13.82;9.85;;;5.90;99.90;;;;;;4803474;29;20090;-83
2022/11/03 12:03:28;;;;;;;18.77;10.15;;;5.90;99.90;;;;;;4803676;29;20413;-81
2022/11/03 12:05:55;;;;;;;14.65;10.38;;;5.80;99.90;;;;;;4796189;29;20051;-82
2022/11/03 12:08:28;;;;;;;14.88;10.20;;;5.80;99.90;;;;;;4819547;29;20055;-83
2022/11/03 12:10:58;;;;;;;18.30;10.23;;;5.80;99.90;;;;;;4805666;29;20090;-83
2022/11/03 12:13:43;;;;;;;15.00;9.57;;;5.80;99.90;;;;;;4803241;29;20429;-83
2022/11/03 12:16:27;;;;;;;18.50;10.52;;;5.80;99.90;;;;;;4804057;29;20067;-84
2022/11/03 12:18:55;;;;;;;13.18;9.43;;;5.70;99.90;;;;;;4804515;29;20055;-82
2022/11/03 12:21:47;;;;;;;13.40;9.05;;;5.70;99.90;;;;;;4804357;29;20047;-82
2022/11/03 12:24:39;;;;;;;15.93;8.48;;;5.70;99.90;;;;;;4798177;29;20066;-83
2022/11/03 12:27:19;;;;;;;11.20;8.18;;;5.70;99.90;;;;;;4802881;29;20051;-82
2022/11/03 12:29:49;;;;;;;9.45;6.72;;;5.60;99.90;;;;;;4802632;29;20066;-82
2022/11/03 12:32:16;;;;;;;14.23;8.32;;;5.50;99.90;;;;;;4803420;29;20096;-83
2022/11/03 12:34:44;;;;;;;8.82;7.07;;;5.40;99.90;;;;;;4803638;29;20077;-85
2022/11/03 12:37:12;;;;;;;12.43;6.95;;;5.30;99.90;;;;;;4817142;29;20050;-82
2022/11/03 12:39:40;;;;;;;8.05;6.80;;;5.30;99.90;;;;;;4809419;29;20054;-84
2022/11/03 12:42:10;;;;;;;10.05;6.68;;;5.30;99.90;;;;;;4808032;29;20066;-84
2022/11/03 12:44:38;;;;;;;9.40;6.13;;;5.20;99.90;;;;;;4806997;29;20065;-83
2022/11/03 12:47:08;;;;;;;8.35;5.63;;;5.30;99.90;;;;;;4808002;29;20074;-80
2022/11/03 12:49:36;;;;;;;6.75;5.28;;;5.20;99.90;;;;;;4806788;29;20089;-80
2022/11/03 12:52:07;;;;;;;7.70;5.32;;;5.20;99.90;;;;;;4799710;29;20050;-82
2022/11/03 12:54:34;;;;;;;6.82;5.38;;;5.20;99.90;;;;;;4806746;29;20119;-79
2022/11/03 12:57:01;;;;;;;7.95;5.57;;;5.20;99.90;;;;;;4805265;29;20057;-80
2022/11/03 12:59:29;;;;;;;8.95;5.78;;;5.20;99.90;;;;;;4806114;29;20081;-80
2022/11/03 13:01:56;;;;;;;7.95;6.18;;;5.20;99.90;;;;;;4801906;29;20046;-78
2022/11/03 13:04:25;;;;;;;6.90;5.30;;;5.10;99.90;;;;;;4798935;29;20504;-80
2022/11/03 13:06:52;;;;;;;8.63;4.45;;;5.10;99.90;;;;;;4801552;29;20047;-79
2022/11/03 13:09:20;;;;;;;5.57;4.72;;;5.20;99.90;;;;;;4804641;29;20107;-79
2022/11/03 13:14:32;;;;;;;5.20;4.65;;;5.20;99.90;;;;;;4803265;29;20058;-78
2022/11/03 13:16:59;;;;;;;6.47;5.78;;;5.20;99.90;;;;;;4804936;29;20420;-78
2022/11/03 13:19:27;;;;;;;8.80;5.80;;;5.20;99.90;;;;;;4802646;29;20042;-78
2022/11/03 13:21:55;;;;;;;9.85;6.18;;;5.20;99.90;;;;;;4805418;29;20054;-79
2022/11/03 13:24:22;;;;;;;6.78;4.93;;;5.10;99.90;;;;;;4803737;29;20090;-78
2022/11/03 13:26:49;;;;;;;6.97;5.75;;;5.10;99.90;;;;;;4803873;29;20047;-78
2022/11/03 13:29:16;;;;;;;6.82;5.75;;;5.00;99.90;;;;;;4804496;29;20486;-78
2022/11/03 13:31:43;;;;;;;6.90;5.47;;;5.10;99.90;;;;;;4817959;29;20433;-79